createdAt,value
2023-02-12T00:01:16.139Z,102986.00
2023-02-12T00:03:43.072Z,102995.00
2023-02-12T00:06:11.230Z,102986.00
2023-02-12T00:08:38.882Z,102994.00
2023-02-12T00:11:11.045Z,103003.00
2023-02-12T00:13:38.394Z,103002.00
2023-02-12T00:16:10.168Z,103003.00
2023-02-12T00:18:37.259Z,103006.00
2023-02-12T00:21:04.685Z,103014.00
2023-02-12T00:23:32.216Z,103009.00
2023-02-12T00:25:59.008Z,103015.00
2023-02-12T00:28:26.088Z,103015.00
2023-02-12T00:30:53.119Z,103008.00
2023-02-12T00:33:20.097Z,103008.00
2023-02-12T00:35:56.235Z,103010.00
2023-02-12T00:38:23.422Z,103014.00
2023-02-12T00:40:50.468Z,103013.00
2023-02-12T00:43:17.342Z,103015.00
2023-02-12T00:45:47.633Z,103025.00
2023-02-12T00:48:14.980Z,103016.00
2023-02-12T00:50:43.914Z,103012.00
2023-02-12T00:53:10.772Z,103017.00
2023-02-12T00:55:37.632Z,103011.00
2023-02-12T00:58:04.463Z,103009.00
2023-02-12T01:00:31.281Z,103022.00
2023-02-12T01:02:58.086Z,103021.00
2023-02-12T01:05:25.302Z,103025.00
2023-02-12T01:07:53.526Z,103031.00
2023-02-12T01:10:21.223Z,103031.00
2023-02-12T01:12:48.268Z,103038.00
2023-02-12T01:15:27.512Z,103035.00
2023-02-12T01:18:03.408Z,103039.00
2023-02-12T01:20:33.413Z,103040.00
2023-02-12T01:23:16.830Z,103041.00
2023-02-12T01:29:08.744Z,103055.00
2023-02-12T01:31:39.457Z,103049.00
2023-02-12T01:34:15.498Z,103056.00
2023-02-12T01:46:06.747Z,103058.00
2023-02-12T01:49:14.372Z,103059.00
2023-02-12T01:52:22.502Z,103059.00
2023-02-12T01:54:50.204Z,103046.00
2023-02-12T01:57:53.891Z,103059.00
2023-02-12T02:04:17.881Z,103046.00
2023-02-12T02:07:27.727Z,103050.00
2023-02-12T02:10:12.841Z,103036.00
2023-02-12T02:16:03.563Z,103041.00
2023-02-12T02:19:46.166Z,103032.00
2023-02-12T02:22:46.656Z,103042.00
2023-02-12T02:25:19.716Z,103033.00
2023-02-12T02:28:42.806Z,103042.00
2023-02-12T02:35:27.804Z,103050.00
2023-02-12T02:38:37.828Z,103043.00
2023-02-12T02:41:52.434Z,103058.00
2023-02-12T02:44:56.781Z,103060.00
2023-02-12T02:48:29.121Z,103047.00
2023-02-12T02:51:19.774Z,103045.00
2023-02-12T03:01:44.014Z,103047.00
2023-02-12T03:05:10.305Z,103048.00
2023-02-12T03:07:50.443Z,103034.00
2023-02-12T03:10:55.033Z,103046.00
2023-02-12T03:14:18.444Z,103055.00
2023-02-12T03:17:51.545Z,103047.00
2023-02-12T03:21:24.194Z,103053.00
2023-02-12T03:24:29.867Z,103045.00
2023-02-12T03:27:38.965Z,103060.00
2023-02-12T03:30:43.317Z,103059.00
2023-02-12T03:33:47.832Z,103049.00
2023-02-12T03:40:02.396Z,103062.00
2023-02-12T03:42:44.467Z,103070.00
2023-02-12T03:49:01.319Z,103067.00
2023-02-12T03:51:40.639Z,103064.00
2023-02-12T03:54:09.217Z,103081.00
2023-02-12T03:57:05.818Z,103073.00
2023-02-12T03:59:35.165Z,103089.00
2023-02-12T04:02:02.067Z,103086.00
2023-02-12T04:04:29.435Z,103079.00
2023-02-12T04:06:56.461Z,103088.00
2023-02-12T04:09:24.554Z,103080.00
2023-02-12T04:11:51.348Z,103100.00
2023-02-12T04:14:38.694Z,103093.00
2023-02-12T04:17:13.988Z,103096.00
2023-02-12T04:20:09.807Z,103089.00
2023-02-12T04:22:46.132Z,103087.00
2023-02-12T04:25:45.806Z,103091.00
2023-02-12T04:29:14.320Z,103088.00
2023-02-12T04:32:04.841Z,103094.00
2023-02-12T04:35:07.800Z,103096.00
2023-02-12T04:38:17.650Z,103094.00
2023-02-12T04:41:24.891Z,103110.00
2023-02-12T04:44:35.386Z,103111.00
2023-02-12T04:47:58.543Z,103105.00
2023-02-12T04:51:18.786Z,103103.00
2023-02-12T04:53:45.705Z,103110.00
2023-02-12T04:56:13.367Z,103110.00
2023-02-12T04:59:30.032Z,103115.00
2023-02-12T05:02:49.847Z,103114.00
2023-02-12T05:05:23.008Z,103123.00
2023-02-12T05:07:49.974Z,103117.00
2023-02-12T05:10:16.975Z,103118.00
2023-02-12T05:13:21.092Z,103128.00
2023-02-12T05:15:47.919Z,103123.00
2023-02-12T05:18:14.747Z,103106.00
2023-02-12T05:20:41.550Z,103117.00
2023-02-12T05:23:08.377Z,103117.00
2023-02-12T05:25:35.223Z,103115.00
2023-02-12T05:28:08.320Z,103118.00
2023-02-12T05:30:35.166Z,103125.00
2023-02-12T05:33:02.009Z,103126.00
2023-02-12T05:35:35.963Z,103128.00
2023-02-12T05:38:03.099Z,103126.00
2023-02-12T05:40:29.879Z,103126.00
2023-02-12T05:42:56.707Z,103109.00
2023-02-12T05:46:10.487Z,103117.00
2023-02-12T05:48:38.288Z,103123.00
2023-02-12T05:58:16.247Z,103121.00
2023-02-12T06:01:09.589Z,103123.00
2023-02-12T06:03:36.478Z,103120.00
2023-02-12T06:06:03.473Z,103121.00
2023-02-12T06:08:30.325Z,103130.00
2023-02-12T06:11:01.298Z,103139.00
2023-02-12T06:13:28.313Z,103128.00
2023-02-12T06:15:55.485Z,103133.00
2023-02-12T06:18:22.762Z,103141.00
2023-02-12T06:20:49.733Z,103139.00
2023-02-12T06:23:21.571Z,103140.00
2023-02-12T06:25:56.010Z,103152.00
2023-02-12T06:33:00.152Z,103151.00
2023-02-12T06:35:39.403Z,103141.00
2023-02-12T06:39:05.670Z,103142.00
2023-02-12T06:41:32.508Z,103147.00
2023-02-12T06:43:59.364Z,103148.00
2023-02-12T06:46:26.509Z,103158.00
2023-02-12T06:48:58.736Z,103162.00
2023-02-12T06:51:27.400Z,103146.00
2023-02-12T06:53:55.770Z,103162.00
2023-02-12T06:56:23.948Z,103171.00
2023-02-12T06:59:46.860Z,103158.00
2023-02-12T07:02:13.636Z,103175.00
2023-02-12T07:04:59.326Z,103169.00
2023-02-12T07:07:41.278Z,103160.00
2023-02-12T07:10:08.766Z,103182.00
2023-02-12T07:12:35.614Z,103176.00
2023-02-12T07:15:46.118Z,103177.00
2023-02-12T07:18:12.918Z,103179.00
2023-02-12T07:20:39.748Z,103183.00
2023-02-12T07:23:06.570Z,103179.00
2023-02-12T07:29:14.279Z,103179.00
2023-02-12T07:31:41.908Z,103193.00
2023-02-12T07:34:10.015Z,103193.00
2023-02-12T07:36:37.145Z,103202.00
2023-02-12T07:39:04.332Z,103199.00
2023-02-12T07:41:33.420Z,103205.00
2023-02-12T07:44:07.444Z,103214.00
2023-02-12T07:46:40.598Z,103217.00
2023-02-12T07:49:12.208Z,103214.00
2023-02-12T07:51:39.108Z,103218.00
2023-02-12T07:54:06.297Z,103218.00
2023-02-12T07:56:35.432Z,103225.00
2023-02-12T07:59:05.086Z,103224.00
2023-02-12T08:01:37.042Z,103232.00
2023-02-12T08:04:09.695Z,103228.00
2023-02-12T08:06:38.959Z,103237.00
2023-02-12T08:09:09.886Z,103230.00
2023-02-12T08:11:37.593Z,103239.00
2023-02-12T08:14:04.903Z,103238.00
2023-02-12T08:16:35.608Z,103246.00
2023-02-12T08:19:15.873Z,103241.00
2023-02-12T08:21:44.630Z,103245.00
2023-02-12T08:24:11.939Z,103244.00
2023-02-12T08:26:39.654Z,103242.00
2023-02-12T08:29:14.965Z,103237.00
2023-02-12T08:31:47.046Z,103235.00
2023-02-12T08:34:21.066Z,103253.00
2023-02-12T08:36:49.822Z,103235.00
2023-02-12T08:39:19.843Z,103254.00
2023-02-12T08:41:52.684Z,103235.00
2023-02-12T08:44:19.770Z,103251.00
2023-02-12T08:46:48.759Z,103253.00
2023-02-12T08:49:18.983Z,103247.00
2023-02-12T08:51:51.152Z,103255.00
2023-02-12T08:54:20.304Z,103258.00
2023-02-12T08:56:47.419Z,103253.00
2023-02-12T08:59:15.428Z,103245.00
2023-02-12T09:01:43.358Z,103262.00
2023-02-12T09:04:17.808Z,103257.00
2023-02-12T09:06:45.408Z,103263.00
2023-02-12T09:09:12.263Z,103253.00
2023-02-12T09:11:39.155Z,103279.00
2023-02-12T09:14:07.746Z,103278.00
2023-02-12T09:16:36.412Z,103288.00
2023-02-12T09:19:04.143Z,103273.00
2023-02-12T09:21:31.055Z,103272.00
2023-02-12T09:23:57.943Z,103281.00
2023-02-12T09:26:26.186Z,103289.00
2023-02-12T09:28:53.624Z,103283.00
2023-02-12T09:31:26.642Z,103298.00
2023-02-12T09:33:55.953Z,103283.00
2023-02-12T09:36:22.926Z,103290.00
2023-02-12T09:38:50.248Z,103291.00
2023-02-12T09:41:17.083Z,103301.00
2023-02-12T09:44:18.016Z,103301.00
2023-02-12T09:47:03.682Z,103288.00
2023-02-12T09:49:46.633Z,103285.00
2023-02-12T09:52:17.266Z,103288.00
2023-02-12T09:54:48.179Z,103277.00
2023-02-12T09:57:36.314Z,103277.00
2023-02-12T10:00:10.316Z,103285.00
2023-02-12T10:02:40.271Z,103275.00
2023-02-12T10:05:17.330Z,103267.00
2023-02-12T10:07:47.087Z,103271.00
2023-02-12T10:10:29.188Z,103267.00
2023-02-12T10:13:07.713Z,103264.00
2023-02-12T10:16:03.381Z,103264.00
2023-02-12T10:19:07.723Z,103258.00
2023-02-12T10:21:40.561Z,103260.00
2023-02-12T10:24:35.371Z,103256.00
2023-02-12T10:27:11.186Z,103255.00
2023-02-12T10:29:39.817Z,103254.00
2023-02-12T10:32:25.476Z,103257.00
2023-02-12T10:34:53.931Z,103247.00
2023-02-12T10:37:45.654Z,103232.00
2023-02-12T10:40:23.327Z,103228.00
2023-02-12T10:42:52.501Z,103235.00
2023-02-12T10:45:30.020Z,103235.00
2023-02-12T10:48:21.604Z,103243.00
2023-02-12T10:51:10.182Z,103235.00
2023-02-12T10:53:42.069Z,103232.00
2023-02-12T10:56:08.830Z,103244.00
2023-02-12T10:58:35.640Z,103250.00
2023-02-12T11:01:03.053Z,103251.00
2023-02-12T11:03:34.370Z,103257.00
2023-02-12T11:06:23.101Z,103244.00
2023-02-12T11:08:50.079Z,103250.00
2023-02-12T11:11:23.216Z,103248.00
2023-02-12T11:14:19.651Z,103258.00
2023-02-12T11:16:55.413Z,103240.00
2023-02-12T11:19:40.282Z,103254.00
2023-02-12T11:22:11.950Z,103235.00
2023-02-12T11:24:38.777Z,103249.00
2023-02-12T11:27:13.253Z,103239.00
2023-02-12T11:29:40.445Z,103254.00
2023-02-12T11:32:09.401Z,103241.00
2023-02-12T11:34:37.069Z,103235.00
2023-02-12T11:37:05.095Z,103227.00
2023-02-12T11:39:34.683Z,103244.00
2023-02-12T11:42:05.424Z,103239.00
2023-02-12T11:44:38.173Z,103230.00
2023-02-12T11:47:09.367Z,103232.00
2023-02-12T11:49:49.280Z,103217.00
2023-02-12T11:52:23.206Z,103203.00
2023-02-12T11:54:52.370Z,103213.00
2023-02-12T11:57:48.609Z,103207.00
2023-02-12T12:00:38.636Z,103207.00
2023-02-12T12:03:26.593Z,103211.00
2023-02-12T12:05:57.605Z,103208.00
2023-02-12T12:08:44.800Z,103235.00
2023-02-12T12:11:23.781Z,103236.00
2023-02-12T12:14:08.221Z,103230.00
2023-02-12T12:17:20.000Z,103204.00
2023-02-12T12:20:13.588Z,103182.00
2023-02-12T12:22:52.466Z,103201.00
